createdAt,value
2022-09-15T00:00:28.570Z,98871.88
2022-09-15T00:01:30.448Z,98871.19
2022-09-15T00:02:35.010Z,98859.44
2022-09-15T00:03:36.918Z,98865.81
2022-09-15T00:04:41.318Z,98872.03
2022-09-15T00:05:43.174Z,98860.44
2022-09-15T00:06:47.544Z,98871.19
2022-09-15T00:07:49.304Z,98865.81
2022-09-15T00:08:53.769Z,98872.03
2022-09-15T00:09:55.546Z,98850.38
2022-09-15T00:11:01.346Z,98856.09
2022-09-15T00:12:03.145Z,98863.13
2022-09-15T00:13:07.528Z,98861.47
2022-09-15T00:14:09.706Z,98858.78
2022-09-15T00:15:15.557Z,98852.56
2022-09-15T00:16:18.190Z,98854.41
2022-09-15T00:17:22.909Z,98855.41
2022-09-15T00:18:25.469Z,98854.56
2022-09-15T00:19:29.878Z,98861.94
2022-09-15T00:20:31.778Z,98856.91
2022-09-15T00:21:36.901Z,98852.69
2022-09-15T00:22:38.684Z,98856.38
2022-09-15T00:23:43.117Z,98851.34
2022-09-15T00:24:44.883Z,98860.41
2022-09-15T00:25:53.039Z,98858.41
2022-09-15T00:26:54.851Z,98854.72
2022-09-15T00:27:59.635Z,98860.94
2022-09-15T00:29:01.761Z,98862.44
2022-09-15T00:30:06.887Z,98856.91
2022-09-15T00:31:10.244Z,98860.09
2022-09-15T00:32:14.666Z,98861.63
2022-09-15T00:33:16.584Z,98865.50
2022-09-15T00:34:20.972Z,98866.88
2022-09-15T00:35:22.725Z,98858.13
2022-09-15T00:36:27.441Z,98866.03
2022-09-15T00:37:29.246Z,98863.88
2022-09-15T00:38:33.865Z,98862.56
2022-09-15T00:39:35.782Z,98855.16
2022-09-15T00:40:49.962Z,98869.97
2022-09-15T00:41:51.861Z,98867.94
2022-09-15T00:42:56.289Z,98866.09
2022-09-15T00:43:59.366Z,98873.31
2022-09-15T00:45:04.983Z,98877.84
2022-09-15T00:46:06.889Z,98874.31
2022-09-15T00:47:19.915Z,98874.31
2022-09-15T00:48:22.001Z,98878.84
2022-09-15T00:49:30.761Z,98872.81
2022-09-15T00:50:32.750Z,98875.31
2022-09-15T00:51:42.646Z,98869.97
2022-09-15T00:52:48.454Z,98850.28
2022-09-15T00:53:53.003Z,98862.56
2022-09-15T00:55:04.451Z,98866.25
2022-09-15T00:56:09.134Z,98858.19
2022-09-15T00:57:12.349Z,98860.91
2022-09-15T00:58:22.562Z,98860.72
2022-09-15T00:59:25.170Z,98866.25
2022-09-15T01:00:30.159Z,98860.91
2022-09-15T01:01:32.181Z,98861.72
2022-09-15T01:02:37.424Z,98855.53
2022-09-15T01:03:39.540Z,98855.53
2022-09-15T01:04:43.990Z,98855.69
2022-09-15T01:05:46.805Z,98859.22
2022-09-15T01:06:52.354Z,98862.91
2022-09-15T01:07:57.057Z,98855.00
2022-09-15T01:09:07.662Z,98842.56
2022-09-15T01:10:17.116Z,98854.50
2022-09-15T01:11:21.521Z,98849.97
2022-09-15T01:12:23.368Z,98846.44
2022-09-15T01:13:29.743Z,98850.13
2022-09-15T01:14:32.517Z,98847.75
2022-09-15T01:15:48.860Z,98846.06
2022-09-15T01:16:56.528Z,98846.25
2022-09-15T01:18:07.217Z,98837.34
2022-09-15T01:19:23.196Z,98833.97
2022-09-15T01:20:34.179Z,98833.97
2022-09-15T01:21:46.818Z,98838.34
2022-09-15T01:23:06.296Z,98831.44
2022-09-15T01:24:14.154Z,98830.63
2022-09-15T01:25:35.332Z,98825.25
2022-09-15T01:26:58.167Z,98820.50
2022-09-15T01:28:21.172Z,98827.25
2022-09-15T01:29:35.138Z,98814.81
2022-09-15T01:30:42.954Z,98822.19
2022-09-15T01:32:01.953Z,98817.69
2022-09-15T01:33:05.653Z,98817.69
2022-09-15T01:34:12.246Z,98819.50
2022-09-15T01:35:28.771Z,98816.00
2022-09-15T01:36:38.893Z,98818.50
2022-09-15T01:37:42.869Z,98814.81
2022-09-15T01:38:52.445Z,98820.19
2022-09-15T01:39:54.453Z,98811.13
2022-09-15T01:41:04.889Z,98805.75
2022-09-15T01:42:07.414Z,98809.28
2022-09-15T01:43:12.107Z,98808.44
2022-09-15T01:44:15.189Z,98809.13
2022-09-15T01:45:21.082Z,98809.13
2022-09-15T01:46:26.420Z,98810.78
2022-09-15T01:47:28.509Z,98806.44
2022-09-15T01:48:32.883Z,98808.28
2022-09-15T01:49:35.770Z,98809.13
2022-09-15T01:50:45.574Z,98808.94
2022-09-15T01:51:47.865Z,98801.06
2022-09-15T01:52:52.623Z,98809.78
2022-09-15T01:53:57.075Z,98806.44
2022-09-15T01:55:00.616Z,98799.03
2022-09-15T01:56:14.333Z,98810.78
2022-09-15T01:57:17.345Z,98802.06
2022-09-15T01:58:21.698Z,98810.97
2022-09-15T01:59:26.052Z,98811.81
2022-09-15T02:00:29.387Z,98798.38
2022-09-15T02:01:40.615Z,98804.56
2022-09-15T02:02:49.345Z,98802.91
2022-09-15T02:03:55.659Z,98808.28
2022-09-15T02:05:01.105Z,98802.06
2022-09-15T02:06:07.300Z,98800.22
2022-09-15T02:07:13.826Z,98803.75
2022-09-15T02:08:20.065Z,98804.56
2022-09-15T02:09:27.179Z,98798.38
2022-09-15T02:10:40.320Z,98801.06
2022-09-15T02:11:49.110Z,98791.13
2022-09-15T02:12:59.966Z,98794.03
2022-09-15T02:14:11.404Z,98793.81
2022-09-15T02:15:16.918Z,98788.44
2022-09-15T02:16:20.318Z,98787.63
2022-09-15T02:17:24.988Z,98787.63
2022-09-15T02:18:38.721Z,98792.16
2022-09-15T02:19:43.992Z,98783.91
2022-09-15T02:20:58.623Z,98775.84
2022-09-15T02:22:28.953Z,98771.16
2022-09-15T02:23:31.983Z,98765.78
2022-09-15T02:24:59.550Z,98774.69
2022-09-15T02:26:08.927Z,98772.84
2022-09-15T02:27:15.671Z,98769.16
2022-09-15T02:28:17.503Z,98774.53
2022-09-15T02:29:22.114Z,98772.84
2022-09-15T02:30:23.992Z,98768.31
2022-09-15T02:31:28.434Z,98769.16
2022-09-15T02:32:30.379Z,98767.16
2022-09-15T02:33:35.914Z,98771.53
2022-09-15T02:34:38.668Z,98769.69
2022-09-15T02:35:43.097Z,98775.91
2022-09-15T02:36:45.902Z,98769.53
2022-09-15T02:37:50.277Z,98766.00
2022-09-15T02:38:59.531Z,98782.97
2022-09-15T02:40:04.015Z,98778.59
2022-09-15T02:41:06.001Z,98783.28
2022-09-15T02:42:10.645Z,98777.91
2022-09-15T02:44:52.178Z,98779.91
2022-09-15T02:45:55.244Z,98779.91
2022-09-15T02:47:00.646Z,98789.81
2022-09-15T02:48:02.505Z,98779.06
2022-09-15T02:49:07.042Z,98779.06
2022-09-15T02:50:08.893Z,98773.69
2022-09-15T02:51:14.285Z,98778.22
2022-09-15T02:52:16.097Z,98766.63
2022-09-15T02:53:20.553Z,98771.84
2022-09-15T02:54:22.315Z,98774.53
2022-09-15T02:55:29.116Z,98771.53
2022-09-15T02:56:31.049Z,98761.78
2022-09-15T02:57:35.411Z,98766.16
2022-09-15T02:58:37.210Z,98770.53
2022-09-15T02:59:54.030Z,98768.69
2022-09-15T03:00:58.504Z,98773.06
2022-09-15T03:02:00.497Z,98771.19
2022-09-15T03:03:04.954Z,98771.84
2022-09-15T03:04:06.759Z,98768.16
2022-09-15T03:05:11.666Z,98772.38
2022-09-15T03:06:16.714Z,98760.63
2022-09-15T03:07:21.729Z,98759.44
2022-09-15T03:08:23.724Z,98754.75
2022-09-15T03:09:28.358Z,98751.72
2022-09-15T03:10:30.580Z,98759.44
2022-09-15T03:11:35.369Z,98759.13
2022-09-15T03:12:37.886Z,98758.78
2022-09-15T03:13:42.575Z,98749.72
2022-09-15T03:14:44.589Z,98750.38
2022-09-15T03:15:49.032Z,98751.06
2022-09-15T03:16:50.843Z,98763.47
2022-09-15T03:17:55.326Z,98759.78
2022-09-15T03:18:58.766Z,98758.78
2022-09-15T03:20:03.350Z,98764.84
2022-09-15T03:21:06.006Z,98763.88
2022-09-15T03:22:10.552Z,98760.31
2022-09-15T03:23:12.365Z,98760.19
2022-09-15T03:24:18.922Z,98761.84
2022-09-15T03:25:20.951Z,98771.59
2022-09-15T03:26:25.489Z,98773.25
2022-09-15T03:27:27.278Z,98771.59
2022-09-15T03:28:31.885Z,98771.59
2022-09-15T03:29:33.779Z,98774.28
2022-09-15T03:30:38.158Z,98775.31
2022-09-15T03:31:39.983Z,98774.28
2022-09-15T03:32:44.470Z,98770.56
2022-09-15T03:33:46.460Z,98774.28
2022-09-15T03:34:52.401Z,98773.25
2022-09-15T03:35:56.266Z,98775.78
2022-09-15T03:37:00.657Z,98771.25
2022-09-15T03:38:02.467Z,98772.94
2022-09-15T03:39:07.113Z,98779.81
2022-09-15T03:40:10.850Z,98775.28
2022-09-15T03:41:15.531Z,98777.66
2022-09-15T03:42:17.380Z,98786.72
2022-09-15T03:43:21.829Z,98775.13
2022-09-15T03:44:24.247Z,98783.34
2022-09-15T03:45:28.652Z,98790.56
2022-09-15T03:46:30.540Z,98787.22
2022-09-15T03:47:35.165Z,98781.16
2022-09-15T03:48:37.713Z,98782.84
2022-09-15T03:49:42.110Z,98785.69
2022-09-15T03:50:43.898Z,98782.16
2022-09-15T03:51:48.443Z,98781.31
2022-09-15T03:52:50.658Z,98782.34
2022-09-15T03:53:55.048Z,98778.00
2022-09-15T03:54:56.819Z,98786.06
2022-09-15T03:56:09.969Z,98794.13
2022-09-15T03:57:11.752Z,98788.75
2022-09-15T03:58:16.275Z,98792.28
2022-09-15T03:59:19.040Z,98780.69
2022-09-15T04:00:23.432Z,98787.53
2022-09-15T04:01:25.378Z,98788.38
2022-09-15T04:02:29.919Z,98787.38
2022-09-15T04:03:31.887Z,98789.06
2022-09-15T04:04:36.866Z,98790.75
2022-09-15T04:05:38.916Z,98791.59
2022-09-15T04:06:43.589Z,98793.44
2022-09-15T04:07:45.403Z,98793.44
2022-09-15T04:08:50.232Z,98786.38
2022-09-15T04:09:52.163Z,98788.06
2022-09-15T04:10:56.982Z,98794.44
2022-09-15T04:11:58.870Z,98788.22
2022-09-15T04:13:03.229Z,98790.06
2022-09-15T04:14:05.068Z,98786.53
2022-09-15T04:15:09.617Z,98786.06
2022-09-15T04:16:15.456Z,98782.69
2022-09-15T04:17:19.982Z,98782.13
2022-09-15T04:18:21.901Z,98786.16
2022-09-15T04:19:26.323Z,98784.84
2022-09-15T04:20:28.274Z,98787.84
2022-09-15T04:21:32.872Z,98790.00
2022-09-15T04:22:34.689Z,98788.69
2022-09-15T04:23:39.211Z,98774.56
2022-09-15T04:24:44.171Z,98777.41
2022-09-15T04:25:57.146Z,98772.22
2022-09-15T04:26:59.112Z,98769.84
2022-09-15T04:28:03.556Z,98764.81
2022-09-15T04:29:06.111Z,98766.84
2022-09-15T04:30:10.718Z,98761.63
2022-09-15T04:31:13.470Z,98761.78
2022-09-15T04:32:17.865Z,98760.94
2022-09-15T04:33:19.746Z,98751.34
2022-09-15T04:34:24.578Z,98761.41
2022-09-15T04:35:26.360Z,98756.41
2022-09-15T04:36:31.774Z,98756.72
2022-09-15T04:37:33.628Z,98771.31
2022-09-15T04:38:38.862Z,98763.44
2022-09-15T04:39:43.282Z,98766.28
2022-09-15T04:40:45.604Z,98763.75
2022-09-15T04:41:50.073Z,98764.09
2022-09-15T04:42:52.897Z,98757.88
2022-09-15T04:43:57.578Z,98751.66
2022-09-15T04:44:59.482Z,98756.19
2022-09-15T04:46:03.878Z,98762.41
2022-09-15T04:47:08.307Z,98761.72
2022-09-15T04:48:10.190Z,98762.56
2022-09-15T04:49:14.596Z,98760.72
2022-09-15T04:50:16.573Z,98762.41
2022-09-15T04:51:23.127Z,98757.72
2022-09-15T04:52:24.919Z,98759.22
2022-09-15T04:53:29.300Z,98757.22
2022-09-15T04:54:33.620Z,98756.88
2022-09-15T04:55:38.778Z,98762.78
2022-09-15T04:56:40.582Z,98756.41
2022-09-15T04:57:44.951Z,98765.78
2022-09-15T04:58:47.709Z,98774.53
2022-09-15T04:59:52.191Z,98771.53
2022-09-15T05:00:54.124Z,98770.53
2022-09-15T05:01:58.881Z,98776.56
2022-09-15T05:03:00.747Z,98772.53
2022-09-15T05:04:06.006Z,98772.38
2022-09-15T05:05:07.999Z,98774.91
2022-09-15T05:06:13.874Z,98777.41
2022-09-15T05:07:18.317Z,98770.03
2022-09-15T05:08:20.197Z,98779.78
2022-09-15T05:09:25.359Z,98787.50
2022-09-15T05:10:27.233Z,98785.47
2022-09-15T05:11:32.881Z,98782.63
2022-09-15T05:12:34.691Z,98786.00
2022-09-15T05:13:39.577Z,98786.69
2022-09-15T05:14:41.354Z,98786.50
2022-09-15T05:15:45.740Z,98793.38
2022-09-15T05:16:47.570Z,98796.75
2022-09-15T05:17:52.530Z,98799.94
2022-09-15T05:18:55.204Z,98797.09
2022-09-15T05:19:59.610Z,98795.13
2022-09-15T05:21:01.991Z,98799.13
2022-09-15T05:22:06.395Z,98800.50
2022-09-15T05:23:08.283Z,98804.38
2022-09-15T05:24:12.651Z,98807.53
2022-09-15T05:25:14.429Z,98809.75
2022-09-15T05:26:19.802Z,98808.22
2022-09-15T05:27:21.575Z,98811.41
2022-09-15T05:28:26.461Z,98820.50
2022-09-15T05:29:28.260Z,98816.44
2022-09-15T05:30:38.560Z,98821.34
2022-09-15T05:31:45.001Z,98829.06
2022-09-15T05:32:46.863Z,98826.84
2022-09-15T05:33:52.733Z,98834.44
2022-09-15T05:34:54.537Z,98833.09
2022-09-15T05:36:02.570Z,98829.03
2022-09-15T05:37:06.958Z,98834.59
2022-09-15T05:38:08.722Z,98840.44
2022-09-15T05:39:13.138Z,98836.75
2022-09-15T05:40:15.403Z,98848.16
2022-09-15T05:41:21.079Z,98843.97
2022-09-15T05:42:22.918Z,98848.84
2022-09-15T05:43:27.293Z,98845.78
2022-09-15T05:44:31.663Z,98855.53
2022-09-15T05:45:33.538Z,98861.44
2022-09-15T05:46:37.968Z,98860.28
2022-09-15T05:47:39.800Z,98871.91
2022-09-15T05:48:44.176Z,98870.72
2022-09-15T05:49:48.801Z,98876.91
2022-09-15T05:50:51.105Z,98885.19
2022-09-15T05:51:55.599Z,98890.22
2022-09-15T05:52:57.363Z,98892.75
2022-09-15T05:54:02.826Z,98890.22
2022-09-15T05:55:04.804Z,98898.97
2022-09-15T05:56:15.813Z,98900.66
2022-09-15T05:57:17.603Z,98898.63
2022-09-15T05:58:21.968Z,98899.13
2022-09-15T05:59:23.770Z,98900.44
2022-09-15T06:00:28.373Z,98908.69
2022-09-15T06:01:31.225Z,98901.94
2022-09-15T06:02:36.154Z,98904.63
2022-09-15T06:03:38.003Z,98898.53
2022-09-15T06:04:42.419Z,98901.19
2022-09-15T06:05:44.200Z,98907.56
2022-09-15T06:06:48.597Z,98909.53
2022-09-15T06:07:52.790Z,98906.81
2022-09-15T06:08:59.494Z,98915.88
2022-09-15T06:10:01.486Z,98920.59
2022-09-15T06:11:07.040Z,98928.97
2022-09-15T06:12:11.498Z,98919.50
2022-09-15T06:13:13.259Z,98922.88
2022-09-15T06:14:17.658Z,98925.91
2022-09-15T06:15:19.955Z,98929.25
2022-09-15T06:16:25.229Z,98926.88
2022-09-15T06:17:28.327Z,98932.56
2022-09-15T06:18:32.789Z,98924.63
2022-09-15T06:19:37.208Z,98930.13
2022-09-15T06:20:40.339Z,98931.78
2022-09-15T06:21:44.741Z,98938.78
2022-09-15T06:22:46.506Z,98933.97
2022-09-15T06:23:55.193Z,98932.22
2022-09-15T06:24:57.055Z,98935.03
2022-09-15T06:26:06.884Z,98937.19
2022-09-15T06:27:11.270Z,98939.16
2022-09-15T06:28:13.117Z,98943.19
2022-09-15T06:29:17.502Z,98950.25
2022-09-15T06:30:19.274Z,98940.50
2022-09-15T06:31:23.862Z,98950.25
2022-09-15T06:32:28.578Z,98957.53
2022-09-15T06:33:30.572Z,98951.31
2022-09-15T06:34:35.449Z,98960.44
2022-09-15T06:35:37.238Z,98952.69
2022-09-15T06:36:41.670Z,98954.72
2022-09-15T06:37:43.471Z,98949.31
2022-09-15T06:38:47.934Z,98952.38
2022-09-15T06:39:49.839Z,98958.78
2022-09-15T06:40:58.275Z,98962.50
2022-09-15T06:42:04.803Z,98962.50
2022-09-15T06:43:09.373Z,98964.56
2022-09-15T06:44:13.811Z,98970.81
2022-09-15T06:45:15.640Z,98968.75
2022-09-15T06:46:21.828Z,98964.19
2022-09-15T06:47:24.346Z,98967.56
2022-09-15T06:48:28.740Z,98971.41
2022-09-15T06:49:31.256Z,98974.28
2022-09-15T06:50:35.683Z,98965.53
2022-09-15T06:51:40.036Z,98969.72
2022-09-15T06:52:43.597Z,98965.69
2022-09-15T06:53:48.032Z,98973.44
2022-09-15T06:54:50.041Z,98968.22
2022-09-15T06:55:54.910Z,98976.31
2022-09-15T06:56:59.369Z,98976.69
2022-09-15T06:58:01.175Z,98979.75
2022-09-15T06:59:05.766Z,98979.81
2022-09-15T07:00:08.273Z,98985.22
2022-09-15T07:01:16.798Z,98973.94
2022-09-15T07:02:21.326Z,98974.75
2022-09-15T07:03:23.221Z,98970.41
2022-09-15T07:04:27.681Z,98973.38
2022-09-15T07:05:29.829Z,98969.13
2022-09-15T07:06:35.431Z,98975.31
2022-09-15T07:07:40.761Z,98973.53
2022-09-15T07:08:42.846Z,98972.50
2022-09-15T07:09:49.732Z,98970.09
2022-09-15T07:10:51.624Z,98980.53
2022-09-15T07:11:55.995Z,98984.81
2022-09-15T07:12:58.984Z,98989.88
2022-09-15T07:14:03.454Z,98979.91
2022-09-15T07:15:05.430Z,98993.91
2022-09-15T07:16:11.948Z,98998.28
2022-09-15T07:17:16.369Z,98996.97
2022-09-15T07:18:18.216Z,99004.06
2022-09-15T07:19:22.582Z,99000.16
2022-09-15T07:20:25.824Z,99006.75
2022-09-15T07:21:30.318Z,98992.41
2022-09-15T07:22:32.243Z,99000.59
2022-09-15T07:23:37.227Z,98998.91
2022-09-15T07:24:39.000Z,99002.00
2022-09-15T07:25:44.126Z,99001.34
2022-09-15T07:26:48.630Z,98995.28
2022-09-15T07:27:50.420Z,99005.06
2022-09-15T07:28:56.838Z,99007.19
2022-09-15T07:29:58.922Z,99006.53
2022-09-15T07:31:03.335Z,99004.53
2022-09-15T07:32:08.659Z,99017.75
2022-09-15T07:33:11.589Z,99007.66
2022-09-15T07:34:15.963Z,99009.69
2022-09-15T07:35:17.799Z,99008.88
2022-09-15T07:36:22.186Z,99002.97
2022-09-15T07:37:24.022Z,99007.72
2022-09-15T07:38:28.499Z,99005.50
2022-09-15T07:39:31.014Z,99009.31
2022-09-15T07:40:35.433Z,99010.34
2022-09-15T07:41:39.856Z,99018.00
2022-09-15T07:42:44.661Z,99010.31
2022-09-15T07:43:52.923Z,99009.91
2022-09-15T07:44:54.756Z,99013.97
2022-09-15T07:45:59.904Z,99017.91
2022-09-15T07:47:04.339Z,99028.91
2022-09-15T07:48:06.475Z,99034.81
2022-09-15T07:49:12.789Z,99026.47
2022-09-15T07:50:14.893Z,99031.88
2022-09-15T07:51:20.393Z,99028.16
2022-09-15T07:52:22.191Z,99032.09
2022-09-15T07:53:26.598Z,99036.00
2022-09-15T07:54:28.577Z,99038.16
2022-09-15T07:55:33.062Z,99033.19
2022-09-15T07:56:34.855Z,99030.19
2022-09-15T07:57:39.219Z,99041.72
2022-09-15T07:58:41.055Z,99029.31
2022-09-15T07:59:45.517Z,99030.09
2022-09-15T08:00:47.736Z,99041.94
2022-09-15T08:01:52.642Z,99035.06
2022-09-15T08:02:54.755Z,99039.88
2022-09-15T08:03:59.275Z,99030.38
2022-09-15T08:05:01.048Z,99030.59
2022-09-15T08:06:06.018Z,99034.78
2022-09-15T08:07:07.834Z,99030.22
2022-09-15T08:08:12.214Z,99036.78
2022-09-15T08:09:17.826Z,99031.50
2022-09-15T08:10:19.715Z,99025.72
2022-09-15T08:11:24.255Z,99030.09
2022-09-15T08:12:26.114Z,99032.63
2022-09-15T08:13:32.401Z,99029.41
2022-09-15T08:14:34.259Z,99024.09
2022-09-15T08:15:39.662Z,99032.28
2022-09-15T08:16:44.881Z,99029.56
2022-09-15T08:17:46.788Z,99029.03
2022-09-15T08:18:51.673Z,99027.19
2022-09-15T08:19:53.671Z,99032.84
2022-09-15T08:20:58.167Z,99027.09
2022-09-15T08:22:00.042Z,99035.88
2022-09-15T08:23:04.570Z,99036.22
2022-09-15T08:24:08.991Z,99034.19
2022-09-15T08:25:10.920Z,99039.41
2022-09-15T08:26:15.931Z,99037.81
2022-09-15T08:27:17.761Z,99041.19
2022-09-15T08:28:22.183Z,99043.53
2022-09-15T08:29:24.078Z,99044.00
2022-09-15T08:30:29.434Z,99045.13
2022-09-15T08:31:31.365Z,99049.50
2022-09-15T08:32:35.866Z,99049.31
2022-09-15T08:33:44.769Z,99050.66
2022-09-15T08:34:50.218Z,99049.22
2022-09-15T08:35:52.088Z,99054.28
2022-09-15T08:36:56.477Z,99052.06
2022-09-15T08:37:58.387Z,99059.69
2022-09-15T08:39:02.796Z,99054.94
2022-09-15T08:40:04.923Z,99052.91
2022-09-15T08:41:10.640Z,99055.59
2022-09-15T08:42:19.133Z,99046.91
2022-09-15T08:43:25.115Z,99054.47
2022-09-15T08:44:41.462Z,99046.38
2022-09-15T08:45:53.686Z,99052.44
2022-09-15T08:47:00.783Z,99052.81
2022-09-15T08:48:03.475Z,99051.88
2022-09-15T08:49:13.351Z,99048.13
2022-09-15T08:50:27.441Z,99049.06
2022-09-15T08:52:04.790Z,99053.09
2022-09-15T08:53:11.979Z,99054.75
2022-09-15T08:54:26.530Z,99050.69
2022-09-15T08:55:37.476Z,99050.31
2022-09-15T08:56:42.449Z,99045.56
2022-09-15T08:57:47.471Z,99051.53
2022-09-15T08:58:49.404Z,99054.13
2022-09-15T08:59:54.539Z,99048.16
2022-09-15T09:01:00.938Z,99056.16
2022-09-15T09:02:22.028Z,99059.34
2022-09-15T09:03:45.405Z,99052.72
2022-09-15T09:04:50.090Z,99057.47
2022-09-15T09:06:00.439Z,99047.69
2022-09-15T09:07:20.830Z,99062.72
2022-09-15T09:08:25.222Z,99048.16
2022-09-15T09:09:44.531Z,99060.25
2022-09-15T09:10:50.744Z,99057.06
2022-09-15T09:12:07.547Z,99062.09
2022-09-15T09:13:24.203Z,99055.78
2022-09-15T09:14:29.005Z,99054.25
2022-09-15T09:15:36.536Z,99051.63
2022-09-15T09:16:44.438Z,99062.53
2022-09-15T09:18:07.402Z,99059.44
2022-09-15T09:19:15.566Z,99067.31
2022-09-15T09:20:22.736Z,99049.94
2022-09-15T09:21:38.095Z,99057.88
2022-09-15T09:22:42.984Z,99065.31
2022-09-15T09:24:03.790Z,99043.28
2022-09-15T09:25:25.829Z,99052.91
2022-09-15T09:26:32.346Z,99057.03
2022-09-15T09:27:35.023Z,99056.72
2022-09-15T09:28:50.116Z,99060.75
2022-09-15T09:29:56.562Z,99064.84
2022-09-15T09:31:03.184Z,99069.00
2022-09-15T09:32:09.011Z,99060.84
2022-09-15T09:33:30.449Z,99063.75
2022-09-15T09:34:37.013Z,99060.88
2022-09-15T09:35:54.322Z,99061.72
2022-09-15T09:37:01.874Z,99053.44
2022-09-15T09:38:03.714Z,99070.84
2022-09-15T09:39:08.681Z,99054.78
2022-09-15T09:40:14.310Z,99055.22
2022-09-15T09:41:28.629Z,99061.72
2022-09-15T09:42:31.287Z,99057.69
2022-09-15T09:43:35.676Z,99053.53
2022-09-15T09:44:37.640Z,99064.34
2022-09-15T09:45:42.005Z,99064.63
2022-09-15T09:46:46.832Z,99066.19
2022-09-15T09:47:48.612Z,99070.88
2022-09-15T09:48:57.532Z,99064.06
2022-09-15T09:50:02.788Z,99070.56
2022-09-15T09:51:05.228Z,99057.66
2022-09-15T09:52:09.610Z,99058.56
2022-09-15T09:53:26.778Z,99060.69
2022-09-15T09:54:31.709Z,99063.38
2022-09-15T09:55:33.535Z,99064.66
2022-09-15T09:56:38.306Z,99054.78
2022-09-15T09:57:42.718Z,99055.03
2022-09-15T09:58:44.745Z,99053.53
2022-09-15T09:59:49.908Z,99050.63
2022-09-15T10:00:52.514Z,99058.09
2022-09-15T10:02:15.792Z,99057.63
2022-09-15T10:03:20.153Z,99054.22
2022-09-15T10:04:23.013Z,99055.47
2022-09-15T10:05:27.419Z,99054.63
2022-09-15T10:06:29.428Z,99050.88
2022-09-15T10:07:35.283Z,99061.75
2022-09-15T10:08:37.070Z,99057.63
2022-09-15T10:09:41.720Z,99049.69
2022-09-15T10:10:50.311Z,99047.06
2022-09-15T10:11:56.157Z,99040.78
2022-09-15T10:12:58.778Z,99048.50
2022-09-15T10:14:03.270Z,99036.53
2022-09-15T10:15:08.605Z,99044.13
2022-09-15T10:16:10.401Z,99044.28
2022-09-15T10:17:15.875Z,99047.69
2022-09-15T10:18:28.153Z,99038.84
2022-09-15T10:19:33.992Z,99050.16
2022-09-15T10:20:42.579Z,99051.03
2022-09-15T10:21:44.398Z,99041.63
2022-09-15T10:22:48.813Z,99040.59
2022-09-15T10:23:50.597Z,99057.75
2022-09-15T10:24:54.995Z,99051.66
2022-09-15T10:26:00.108Z,99050.16
2022-09-15T10:27:19.602Z,99048.28
2022-09-15T10:28:23.134Z,99052.69
2022-09-15T10:29:27.497Z,99033.25
2022-09-15T10:30:29.384Z,99034.72
2022-09-15T10:31:34.824Z,99041.84
2022-09-15T10:32:39.360Z,99043.06
2022-09-15T10:33:42.667Z,99051.66
2022-09-15T10:34:48.874Z,99044.94
2022-09-15T10:35:50.665Z,99055.63
2022-09-15T10:36:58.482Z,99054.34
2022-09-15T10:38:15.872Z,99056.41
2022-09-15T10:39:26.841Z,99057.25
2022-09-15T10:40:49.995Z,99058.13
2022-09-15T10:42:13.082Z,99054.31
2022-09-15T10:43:29.747Z,99051.38
2022-09-15T10:44:40.802Z,99057.47
2022-09-15T10:45:47.545Z,99042.19
2022-09-15T10:47:08.214Z,99050.78
2022-09-15T10:48:18.778Z,99041.38
2022-09-15T10:49:35.071Z,99038.06
2022-09-15T10:50:47.395Z,99043.50
2022-09-15T10:51:54.459Z,99042.88
2022-09-15T10:53:02.287Z,99048.88
2022-09-15T10:54:26.357Z,99043.19
2022-09-15T10:55:48.963Z,99051.69
2022-09-15T10:56:58.303Z,99054.38
2022-09-15T10:58:02.889Z,99057.31
2022-09-15T10:59:22.978Z,99053.97
2022-09-15T11:00:25.793Z,99062.13
2022-09-15T11:01:34.307Z,99059.81
2022-09-15T11:02:38.715Z,99051.84
2022-09-15T11:04:02.179Z,99058.38
2022-09-15T11:05:04.854Z,99042.66
2022-09-15T11:06:21.365Z,99046.91
2022-09-15T11:07:27.613Z,99041.31
2022-09-15T11:08:50.550Z,99038.41
2022-09-15T11:10:15.687Z,99044.25
2022-09-15T11:11:38.716Z,99050.38
2022-09-15T11:12:50.526Z,99056.91
2022-09-15T11:14:07.474Z,99037.63
2022-09-15T11:15:35.413Z,99039.72
2022-09-15T11:16:44.065Z,99047.69
2022-09-15T11:17:51.295Z,99046.44
2022-09-15T11:19:02.617Z,99050.63
2022-09-15T11:20:14.180Z,99050.59
2022-09-15T11:21:21.561Z,99040.72
2022-09-15T11:22:27.506Z,99036.34
2022-09-15T11:23:35.281Z,99057.47
2022-09-15T11:24:39.907Z,99043.44
2022-09-15T11:25:45.795Z,99045.13
2022-09-15T11:26:48.828Z,99043.00
2022-09-15T11:27:56.619Z,99039.22
2022-09-15T11:28:59.997Z,99041.75
2022-09-15T11:30:07.230Z,99044.69
2022-09-15T11:31:27.051Z,99038.81
2022-09-15T11:32:37.272Z,99038.25
2022-09-15T11:33:45.398Z,99033.44
2022-09-15T11:34:50.013Z,99044.97
2022-09-15T11:35:56.560Z,99041.22
2022-09-15T11:37:04.285Z,99037.63
2022-09-15T11:38:14.837Z,99041.81
2022-09-15T11:39:26.241Z,99036.75
2022-09-15T11:40:29.467Z,99052.66
2022-09-15T11:41:44.397Z,99039.66
2022-09-15T11:42:47.106Z,99035.44
2022-09-15T11:43:57.576Z,99033.28
2022-09-15T11:45:01.991Z,99025.56
2022-09-15T11:46:06.234Z,99031.78
2022-09-15T11:47:13.020Z,99031.66
2022-09-15T11:48:31.792Z,99030.91
2022-09-15T11:49:36.104Z,99034.38
2022-09-15T11:50:38.788Z,99036.84
2022-09-15T11:51:44.620Z,99038.53
2022-09-15T11:53:02.874Z,99039.06
2022-09-15T11:54:16.697Z,99030.19
2022-09-15T11:55:18.458Z,99031.59
2022-09-15T11:56:30.641Z,99032.69
2022-09-15T11:57:35.115Z,99039.38
2022-09-15T11:58:52.070Z,99041.50
2022-09-15T11:59:55.690Z,99030.88
2022-09-15T12:01:09.024Z,99038.88
2022-09-15T12:02:17.170Z,99029.38
2022-09-15T12:03:34.339Z,99040.94
2022-09-15T12:04:38.940Z,99035.41
2022-09-15T12:05:49.250Z,99037.91
2022-09-15T12:07:16.793Z,99049.22
2022-09-15T12:08:23.350Z,99030.88
2022-09-15T12:09:27.714Z,99035.94
2022-09-15T12:10:32.295Z,99031.72
2022-09-15T12:11:42.307Z,99013.59
2022-09-15T12:12:44.110Z,99030.94
2022-09-15T12:13:48.574Z,99024.88
2022-09-15T12:14:50.814Z,99033.47
2022-09-15T12:15:55.228Z,99033.88
2022-09-15T12:16:57.800Z,99032.63
2022-09-15T12:18:27.309Z,99036.75
2022-09-15T12:19:52.909Z,99048.47
2022-09-15T12:21:06.393Z,99036.31
2022-09-15T12:22:25.298Z,99032.09
2022-09-15T12:23:29.589Z,99034.59
2022-09-15T12:24:33.963Z,99033.31
2022-09-15T12:25:44.405Z,99045.03
2022-09-15T12:26:46.764Z,99052.78
2022-09-15T12:28:26.833Z,99050.09
2022-09-15T12:29:30.369Z,99041.13
2022-09-15T12:30:41.560Z,99056.41
2022-09-15T12:31:45.922Z,99043.03
2022-09-15T12:32:47.706Z,99060.56
2022-09-15T12:33:59.430Z,99065.78
2022-09-15T12:35:11.426Z,99051.75
2022-09-15T12:36:47.184Z,99064.06
2022-09-15T12:38:01.010Z,99062.41
2022-09-15T12:39:03.329Z,99054.28
2022-09-15T12:40:08.834Z,99057.63
2022-09-15T12:41:11.360Z,99054.34
2022-09-15T12:42:18.702Z,99054.72
2022-09-15T12:43:23.613Z,99053.91
2022-09-15T12:44:42.236Z,99059.34
2022-09-15T12:45:47.496Z,99054.31
2022-09-15T12:46:58.492Z,99050.50
2022-09-15T12:48:06.186Z,99047.59
2022-09-15T12:49:10.351Z,99050.78
2022-09-15T12:50:33.590Z,99046.38
2022-09-15T12:51:35.393Z,99045.13
2022-09-15T12:53:09.265Z,99037.59
2022-09-15T12:54:12.781Z,99049.31
2022-09-15T12:55:21.890Z,99033.81
2022-09-15T12:56:28.025Z,99038.00
2022-09-15T12:57:34.017Z,99037.38
2022-09-15T12:58:36.539Z,99032.97